Brunsville, IA (51008)

6:38 AM CST on November 24, 2014 (GMT -0600)
Down Town | Change Station
CLOSE
Current Station
Personal Weather Station
Location: LeMars, IA
Elevation: 1220 ft
Nearby Weather Stations

Elev 1220 ft 42.80 °N, 96.16 °W | Updated 4 minutes ago

Overcast
Overcast
21.4 °F
Feels Like 9 °F
N
13.0
Wind Variable Wind from NW
Gusts 20.6 mph

Today
High -- | Low -- °F
--% Chance of Precip.
Yesterday
High -- | Low -- °F
Precip. -- in
7:28 AM 4:55 PM
Waxing Crescent, 5% visible
Pressure 29.57 in
Visibility 10.0 miles
Clouds Overcast 2000 ft
Windchill 9 °F
Dew Point 6 °F
Humidity 51%
Rainfall -999.00 in
Snow Depth Not available.
UV 0 out of 12
Pollen .10 out of 12
Air Quality Not available.
Flu Activity Not available.
METAR KLRJ 241155Z AUTO 31017G25KT 10SM OVC020 M05/M09 A2957 RMK AO2

More Conditions Fewer Conditions

Pressure 29.57 in
Visibility 10.0 miles
Clouds Overcast 2000 ft
Windchill 9 °F
Dew Point 6 °F
Humidity 51%
Rainfall -999.00 in
Snow Depth Not available.
UV 0 out of 12
Pollen .10 out of 12
Air Quality Not available.
Flu Activity Not available.
METAR KLRJ 241155Z AUTO 31017G25KT 10SM OVC020 M05/M09 A2957 RMK AO2

More Conditions Fewer Conditions

10-Day Weather Forecast

Almanac

Astronomy

Nov. 24, 2014 Rise Set
Actual Time
Civil Twilight
Nautical Twilight
Astronomical Twilight
Moon
Length of Visible Light
Length of Day
Tomorrow will be .
, % of the Moon is Illuminated

Today's Extremes

State Highs State Lows

Community

WunderPhotos

Upload Photos

1,773,319 photos uploaded!

WunderBlogs® & News

Nearby

Air Quality

  Air Quality AQ Index Pollutant
Not available.

Snow Depth

Station Depth Elevation

Earthquake Activity

City Distance Mag. Time & Date
Minimum magnitude displayed is 2.5.

Coastal Water Temperatures

Place Temperature

Nearby Weather Stations